sensor_id;sensor_type;location;lat;lon;timestamp;pressure;altitude;pressure_sealevel;temperature;humidity
10464;BME280;5279;42.048;24.638;2023-02-20T00:01:52;97618.53;;;14.25;43.60
10464;BME280;5279;42.048;24.638;2023-02-20T00:04:19;97616.19;;;14.30;43.47
10464;BME280;5279;42.048;24.638;2023-02-20T00:06:46;97626.38;;;14.27;43.72
10464;BME280;5279;42.048;24.638;2023-02-20T00:09:15;97618.22;;;14.28;43.63
10464;BME280;5279;42.048;24.638;2023-02-20T00:11:41;97616.03;;;14.23;43.94
10464;BME280;5279;42.048;24.638;2023-02-20T00:14:08;97622.19;;;14.24;43.86
10464;BME280;5279;42.048;24.638;2023-02-20T00:16:35;97618.38;;;14.18;44.33
10464;BME280;5279;42.048;24.638;2023-02-20T00:19:02;97624.38;;;14.12;44.27
10464;BME280;5279;42.048;24.638;2023-02-20T00:21:30;97625.69;;;14.16;44.23
10464;BME280;5279;42.048;24.638;2023-02-20T00:23:57;97627.69;;;14.14;44.28
10464;BME280;5279;42.048;24.638;2023-02-20T00:26:25;97625.53;;;14.10;44.24
10464;BME280;5279;42.048;24.638;2023-02-20T00:28:52;97633.34;;;14.11;44.35
10464;BME280;5279;42.048;24.638;2023-02-20T00:31:19;97643.50;;;14.00;44.68
10464;BME280;5279;42.048;24.638;2023-02-20T00:33:45;97653.97;;;14.01;44.52
10464;BME280;5279;42.048;24.638;2023-02-20T00:36:16;97652.50;;;13.99;44.71
10464;BME280;5279;42.048;24.638;2023-02-20T00:38:43;97657.31;;;13.95;44.84
10464;BME280;5279;42.048;24.638;2023-02-20T00:41:10;97658.66;;;13.91;44.87
10464;BME280;5279;42.048;24.638;2023-02-20T00:43:40;97651.97;;;13.95;44.78
10464;BME280;5279;42.048;24.638;2023-02-20T00:46:10;97649.00;;;13.90;44.83
10464;BME280;5279;42.048;24.638;2023-02-20T00:48:36;97634.97;;;13.80;45.03
10464;BME280;5279;42.048;24.638;2023-02-20T00:51:03;97646.31;;;13.82;45.12
10464;BME280;5279;42.048;24.638;2023-02-20T00:53:30;97648.31;;;13.88;45.16
10464;BME280;5279;42.048;24.638;2023-02-20T00:55:57;97647.31;;;13.81;45.14
10464;BME280;5279;42.048;24.638;2023-02-20T00:58:24;97651.66;;;13.90;44.99
10464;BME280;5279;42.048;24.638;2023-02-20T01:00:52;97641.97;;;13.81;45.42
10464;BME280;5279;42.048;24.638;2023-02-20T01:03:29;97636.97;;;13.78;45.21
10464;BME280;5279;42.048;24.638;2023-02-20T01:05:57;97645.09;;;13.68;45.40
10464;BME280;5279;42.048;24.638;2023-02-20T01:08:24;97634.31;;;13.70;45.55
10464;BME280;5279;42.048;24.638;2023-02-20T01:10:51;97633.97;;;13.73;45.31
10464;BME280;5279;42.048;24.638;2023-02-20T01:13:17;97639.97;;;13.67;45.64
10464;BME280;5279;42.048;24.638;2023-02-20T01:15:44;97636.59;;;13.65;45.83
10464;BME280;5279;42.048;24.638;2023-02-20T01:18:13;97644.59;;;13.57;45.95
10464;BME280;5279;42.048;24.638;2023-02-20T01:20:40;97638.94;;;13.60;46.11
10464;BME280;5279;42.048;24.638;2023-02-20T01:23:06;97632.91;;;13.50;46.34
10464;BME280;5279;42.048;24.638;2023-02-20T01:25:33;97640.41;;;13.54;46.25
10464;BME280;5279;42.048;24.638;2023-02-20T01:28:00;97642.56;;;13.51;46.46
10464;BME280;5279;42.048;24.638;2023-02-20T01:30:28;97645.22;;;13.51;46.47
10464;BME280;5279;42.048;24.638;2023-02-20T01:32:54;97651.53;;;13.42;46.99
10464;BME280;5279;42.048;24.638;2023-02-20T01:35:23;97656.06;;;13.49;46.70
10464;BME280;5279;42.048;24.638;2023-02-20T01:37:49;97663.22;;;13.49;46.88
10464;BME280;5279;42.048;24.638;2023-02-20T01:40:17;97664.84;;;13.50;46.70
10464;BME280;5279;42.048;24.638;2023-02-20T01:42:46;97659.53;;;13.50;46.70
10464;BME280;5279;42.048;24.638;2023-02-20T01:45:15;97663.22;;;13.49;46.89
10464;BME280;5279;42.048;24.638;2023-02-20T01:47:43;97661.41;;;13.57;46.75
10464;BME280;5279;42.048;24.638;2023-02-20T01:50:11;97651.69;;;13.40;47.14
10464;BME280;5279;42.048;24.638;2023-02-20T01:52:42;97657.88;;;13.49;46.82
10464;BME280;5279;42.048;24.638;2023-02-20T01:55:11;97651.53;;;13.42;47.33
10464;BME280;5279;42.048;24.638;2023-02-20T01:57:43;97654.16;;;13.34;47.60
10464;BME280;5279;42.048;24.638;2023-02-20T02:00:16;97655.34;;;13.39;47.63
10464;BME280;5279;42.048;24.638;2023-02-20T02:02:48;97655.00;;;13.34;47.72
10464;BME280;5279;42.048;24.638;2023-02-20T02:05:16;97657.81;;;13.33;47.86
10464;BME280;5279;42.048;24.638;2023-02-20T02:07:45;97653.84;;;13.37;47.84
10464;BME280;5279;42.048;24.638;2023-02-20T02:10:14;97659.09;;;13.21;48.36
10464;BME280;5279;42.048;24.638;2023-02-20T02:12:45;97666.88;;;13.14;48.51
10464;BME280;5279;42.048;24.638;2023-02-20T02:15:14;97671.22;;;13.15;48.82
10464;BME280;5279;42.048;24.638;2023-02-20T02:18:02;97681.00;;;13.14;49.13
10464;BME280;5279;42.048;24.638;2023-02-20T02:21:08;97664.53;;;13.11;49.35
10464;BME280;5279;42.048;24.638;2023-02-20T02:27:28;97667.88;;;12.87;49.86
10464;BME280;5279;42.048;24.638;2023-02-20T02:30:20;97691.13;;;12.85;49.89
10464;BME280;5279;42.048;24.638;2023-02-20T02:33:10;97704.03;;;12.80;50.17
10464;BME280;5279;42.048;24.638;2023-02-20T02:38:46;97720.56;;;12.66;50.65
10464;BME280;5279;42.048;24.638;2023-02-20T02:41:21;97725.72;;;12.68;50.59
10464;BME280;5279;42.048;24.638;2023-02-20T02:43:55;97724.41;;;12.72;50.36
10464;BME280;5279;42.048;24.638;2023-02-20T02:46:27;97707.28;;;12.66;50.60
10464;BME280;5279;42.048;24.638;2023-02-20T02:49:00;97714.66;;;12.54;51.07
10464;BME280;5279;42.048;24.638;2023-02-20T02:51:35;97737.06;;;12.52;51.30
10464;BME280;5279;42.048;24.638;2023-02-20T02:54:09;97740.72;;;12.51;51.43
10464;BME280;5279;42.048;24.638;2023-02-20T02:56:38;97737.22;;;12.33;52.27
10464;BME280;5279;42.048;24.638;2023-02-20T02:59:06;97739.88;;;12.33;52.23
10464;BME280;5279;42.048;24.638;2023-02-20T03:01:38;97736.91;;;12.36;52.25
10464;BME280;5279;42.048;24.638;2023-02-20T03:04:09;97751.50;;;12.32;52.52
10464;BME280;5279;42.048;24.638;2023-02-20T03:06:41;97769.41;;;12.30;52.69
10464;BME280;5279;42.048;24.638;2023-02-20T03:09:13;97766.09;;;12.28;52.79
10464;BME280;5279;42.048;24.638;2023-02-20T03:11:41;97777.31;;;12.22;53.11
10464;BME280;5279;42.048;24.638;2023-02-20T03:14:12;97776.47;;;12.21;53.09
10464;BME280;5279;42.048;24.638;2023-02-20T03:17:03;97768.88;;;12.26;52.65
10464;BME280;5279;42.048;24.638;2023-02-20T03:19:35;97756.19;;;12.20;53.08
10464;BME280;5279;42.048;24.638;2023-02-20T03:22:08;97747.38;;;12.20;52.97
10464;BME280;5279;42.048;24.638;2023-02-20T03:24:38;97753.41;;;12.22;52.90
10464;BME280;5279;42.048;24.638;2023-02-20T03:27:21;97755.97;;;12.14;53.27
10464;BME280;5279;42.048;24.638;2023-02-20T03:29:51;97758.91;;;12.11;53.32
10464;BME280;5279;42.048;24.638;2023-02-20T03:32:19;97762.56;;;12.10;53.39
10464;BME280;5279;42.048;24.638;2023-02-20T03:35:05;97762.03;;;12.06;53.43
10464;BME280;5279;42.048;24.638;2023-02-20T03:37:52;97765.59;;;12.15;52.97
10464;BME280;5279;42.048;24.638;2023-02-20T03:40:39;97759.50;;;12.04;53.09
10464;BME280;5279;42.048;24.638;2023-02-20T03:43:26;97757.88;;;12.03;53.24
10464;BME280;5279;42.048;24.638;2023-02-20T03:45:58;97763.47;;;12.00;53.19
10464;BME280;5279;42.048;24.638;2023-02-20T03:48:31;97763.47;;;12.00;53.12
10464;BME280;5279;42.048;24.638;2023-02-20T03:50:59;97779.16;;;11.94;53.11
10464;BME280;5279;42.048;24.638;2023-02-20T03:53:45;97778.88;;;11.97;52.99
10464;BME280;5279;42.048;24.638;2023-02-20T03:56:15;97791.00;;;11.99;53.03
10464;BME280;5279;42.048;24.638;2023-02-20T03:58:47;97785.41;;;12.02;52.88
10464;BME280;5279;42.048;24.638;2023-02-20T04:01:18;97794.75;;;12.07;52.71
10464;BME280;5279;42.048;24.638;2023-02-20T04:03:48;97788.97;;;12.11;52.57
10464;BME280;5279;42.048;24.638;2023-02-20T04:06:17;97799.34;;;12.04;52.70
10464;BME280;5279;42.048;24.638;2023-02-20T04:08:51;97805.28;;;12.16;52.15
10464;BME280;5279;42.048;24.638;2023-02-20T04:11:22;97801.56;;;12.09;52.33
10464;BME280;5279;42.048;24.638;2023-02-20T04:13:52;97794.75;;;12.07;52.33
10464;BME280;5279;42.048;24.638;2023-02-20T04:16:20;97803.16;;;12.02;52.70
10464;BME280;5279;42.048;24.638;2023-02-20T04:18:48;97808.81;;;11.89;52.87
10464;BME280;5279;42.048;24.638;2023-02-20T04:21:19;97807.44;;;11.85;53.29
10464;BME280;5279;42.048;24.638;2023-02-20T04:23:56;97808.13;;;11.87;53.23
10464;BME280;5279;42.048;24.638;2023-02-20T04:26:25;97813.72;;;11.84;53.15
10464;BME280;5279;42.048;24.638;2023-02-20T04:28:52;97803.41;;;11.81;53.33
10464;BME280;5279;42.048;24.638;2023-02-20T04:31:19;97810.97;;;11.76;53.26
10464;BME280;5279;42.048;24.638;2023-02-20T04:33:46;97811.41;;;11.72;53.34
10464;BME280;5279;42.048;24.638;2023-02-20T04:36:13;97807.91;;;11.71;53.49
10464;BME280;5279;42.048;24.638;2023-02-20T04:38:40;97803.59;;;11.70;53.34
10464;BME280;5279;42.048;24.638;2023-02-20T04:41:08;97820.06;;;11.74;52.91
10464;BME280;5279;42.048;24.638;2023-02-20T04:43:35;97820.34;;;11.71;52.94
10464;BME280;5279;42.048;24.638;2023-02-20T04:46:02;97825.78;;;11.69;52.34
10464;BME280;5279;42.048;24.638;2023-02-20T04:48:29;97820.59;;;11.77;52.01
10464;BME280;5279;42.048;24.638;2023-02-20T04:50:56;97821.44;;;11.68;52.33
10464;BME280;5279;42.048;24.638;2023-02-20T04:53:23;97817.13;;;11.67;52.26
10464;BME280;5279;42.048;24.638;2023-02-20T04:55:49;97836.13;;;11.63;52.81
10464;BME280;5279;42.048;24.638;2023-02-20T04:58:18;97839.75;;;11.62;52.80
10464;BME280;5279;42.048;24.638;2023-02-20T05:00:45;97843.25;;;11.62;52.82
10464;BME280;5279;42.048;24.638;2023-02-20T05:03:11;97836.84;;;11.55;53.30
10464;BME280;5279;42.048;24.638;2023-02-20T05:05:38;97850.84;;;11.57;53.10
10464;BME280;5279;42.048;24.638;2023-02-20T05:08:06;97848.59;;;11.52;53.52
10464;BME280;5279;42.048;24.638;2023-02-20T05:10:34;97849.16;;;11.46;53.62
10464;BME280;5279;42.048;24.638;2023-02-20T05:13:02;97850.88;;;11.38;53.93
10464;BME280;5279;42.048;24.638;2023-02-20T05:15:31;97856.06;;;11.39;53.74
10464;BME280;5279;42.048;24.638;2023-02-20T05:17:58;97866.22;;;11.44;53.39
10464;BME280;5279;42.048;24.638;2023-02-20T05:20:25;97858.84;;;11.38;53.58
10464;BME280;5279;42.048;24.638;2023-02-20T05:23:06;97865.41;;;11.34;53.63
10464;BME280;5279;42.048;24.638;2023-02-20T05:25:32;97877.00;;;11.33;53.54
10464;BME280;5279;42.048;24.638;2023-02-20T05:27:59;97865.69;;;11.31;53.34
10464;BME280;5279;42.048;24.638;2023-02-20T05:30:26;97859.97;;;11.26;53.21
10464;BME280;5279;42.048;24.638;2023-02-20T05:32:54;97873.53;;;11.23;53.24
10464;BME280;5279;42.048;24.638;2023-02-20T05:35:21;97863.31;;;11.28;52.73
10464;BME280;5279;42.048;24.638;2023-02-20T05:37:48;97864.16;;;11.19;52.77
10464;BME280;5279;42.048;24.638;2023-02-20T05:40:15;97860.81;;;11.36;52.63
10464;BME280;5279;42.048;24.638;2023-02-20T05:42:42;97860.63;;;11.47;51.75
10464;BME280;5279;42.048;24.638;2023-02-20T05:45:09;97874.28;;;11.62;51.18
10464;BME280;5279;42.048;24.638;2023-02-20T05:47:36;97875.00;;;11.73;50.84
10464;BME280;5279;42.048;24.638;2023-02-20T05:50:05;97876.72;;;11.92;50.47
10464;BME280;5279;42.048;24.638;2023-02-20T05:52:32;97877.75;;;12.09;49.74
10464;BME280;5279;42.048;24.638;2023-02-20T05:54:59;97883.81;;;12.28;48.85
10464;BME280;5279;42.048;24.638;2023-02-20T05:57:26;97889.06;;;12.38;48.65
10464;BME280;5279;42.048;24.638;2023-02-20T05:59:53;97901.06;;;12.42;48.37
10464;BME280;5279;42.048;24.638;2023-02-20T06:02:19;97898.75;;;12.56;47.89
10464;BME280;5279;42.048;24.638;2023-02-20T06:04:46;97904.97;;;12.65;47.37
10464;BME280;5279;42.048;24.638;2023-02-20T06:07:15;97913.06;;;12.91;47.13
10464;BME280;5279;42.048;24.638;2023-02-20T06:09:42;97924.00;;;13.05;45.78
10464;BME280;5279;42.048;24.638;2023-02-20T06:12:10;97935.63;;;12.87;45.62
10464;BME280;5279;42.048;24.638;2023-02-20T06:14:37;97948.25;;;13.02;45.27
10464;BME280;5279;42.048;24.638;2023-02-20T06:17:04;97949.19;;;13.29;45.13
10464;BME280;5279;42.048;24.638;2023-02-20T06:19:31;97961.59;;;13.20;44.12
10464;BME280;5279;42.048;24.638;2023-02-20T06:21:57;97956.97;;;13.40;43.34
10464;BME280;5279;42.048;24.638;2023-02-20T06:24:26;97969.19;;;13.50;42.42
10464;BME280;5279;42.048;24.638;2023-02-20T06:26:53;97947.44;;;13.55;42.13
10464;BME280;5279;42.048;24.638;2023-02-20T06:29:20;97946.72;;;13.53;41.82
10464;BME280;5279;42.048;24.638;2023-02-20T06:31:47;97944.47;;;13.58;41.63
10464;BME280;5279;42.048;24.638;2023-02-20T06:34:15;97943.34;;;13.43;41.59
10464;BME280;5279;42.048;24.638;2023-02-20T06:36:43;97950.00;;;13.47;41.71
10464;BME280;5279;42.048;24.638;2023-02-20T06:39:12;97932.75;;;13.51;41.62
10464;BME280;5279;42.048;24.638;2023-02-20T06:41:40;97936.63;;;13.56;41.26
10464;BME280;5279;42.048;24.638;2023-02-20T06:44:08;97949.47;;;13.61;40.71
10464;BME280;5279;42.048;24.638;2023-02-20T06:46:35;97915.34;;;13.82;40.71
10464;BME280;5279;42.048;24.638;2023-02-20T06:49:02;97923.06;;;13.93;40.48
10464;BME280;5279;42.048;24.638;2023-02-20T06:51:31;97923.69;;;14.13;39.69
10464;BME280;5279;42.048;24.638;2023-02-20T06:53:59;97918.84;;;14.16;39.35
10464;BME280;5279;42.048;24.638;2023-02-20T06:56:27;97937.03;;;14.47;39.02
10464;BME280;5279;42.048;24.638;2023-02-20T06:58:56;97911.69;;;14.51;37.90
10464;BME280;5279;42.048;24.638;2023-02-20T07:01:25;97935.63;;;14.85;37.70
10464;BME280;5279;42.048;24.638;2023-02-20T07:03:53;97928.84;;;15.06;37.15
10464;BME280;5279;42.048;24.638;2023-02-20T07:06:21;97931.88;;;15.27;36.66
10464;BME280;5279;42.048;24.638;2023-02-20T07:08:49;97924.91;;;15.59;35.72
10464;BME280;5279;42.048;24.638;2023-02-20T07:11:16;97942.09;;;15.64;35.15
10464;BME280;5279;42.048;24.638;2023-02-20T07:13:43;97903.84;;;15.40;35.42
10464;BME280;5279;42.048;24.638;2023-02-20T07:16:12;97909.88;;;15.50;35.61
10464;BME280;5279;42.048;24.638;2023-02-20T07:18:39;97916.88;;;15.51;35.48
10464;BME280;5279;42.048;24.638;2023-02-20T07:21:08;97922.88;;;15.77;35.67
10464;BME280;5279;42.048;24.638;2023-02-20T07:23:35;97920.50;;;15.98;35.74
10464;BME280;5279;42.048;24.638;2023-02-20T07:26:02;97922.41;;;16.28;34.80
10464;BME280;5279;42.048;24.638;2023-02-20T07:28:29;97937.13;;;16.24;34.30
10464;BME280;5279;42.048;24.638;2023-02-20T07:30:55;97937.22;;;15.76;35.13
10464;BME280;5279;42.048;24.638;2023-02-20T07:33:24;97969.44;;;15.34;35.57
10464;BME280;5279;42.048;24.638;2023-02-20T07:35:50;97966.75;;;15.42;35.82
10464;BME280;5279;42.048;24.638;2023-02-20T07:38:19;97942.56;;;15.44;35.84
10464;BME280;5279;42.048;24.638;2023-02-20T07:40:51;97939.09;;;15.59;35.73
10464;BME280;5279;42.048;24.638;2023-02-20T07:43:18;97957.59;;;15.85;35.71
10464;BME280;5279;42.048;24.638;2023-02-20T07:45:45;97949.03;;;16.06;35.08
10464;BME280;5279;42.048;24.638;2023-02-20T07:48:13;97946.94;;;15.53;36.00
10464;BME280;5279;42.048;24.638;2023-02-20T07:50:43;97953.28;;;15.52;36.50
10464;BME280;5279;42.048;24.638;2023-02-20T07:53:13;97954.59;;;15.64;35.76
10464;BME280;5279;42.048;24.638;2023-02-20T07:55:42;97938.91;;;15.77;35.15
10464;BME280;5279;42.048;24.638;2023-02-20T07:58:08;97932.66;;;16.09;35.03
10464;BME280;5279;42.048;24.638;2023-02-20T08:00:35;97927.44;;;16.23;34.47
10464;BME280;5279;42.048;24.638;2023-02-20T08:03:02;97935.09;;;16.26;34.13
10464;BME280;5279;42.048;24.638;2023-02-20T08:05:29;97930.28;;;16.22;34.16
10464;BME280;5279;42.048;24.638;2023-02-20T08:08:01;97914.41;;;16.20;33.45
10464;BME280;5279;42.048;24.638;2023-02-20T08:10:28;97930.19;;;16.46;33.38
10464;BME280;5279;42.048;24.638;2023-02-20T08:12:55;97917.78;;;16.61;33.40
10464;BME280;5279;42.048;24.638;2023-02-20T08:15:22;97907.72;;;16.24;32.61
10464;BME280;5279;42.048;24.638;2023-02-20T08:17:49;97927.50;;;16.07;33.02
10464;BME280;5279;42.048;24.638;2023-02-20T08:20:18;97924.41;;;16.26;33.05
10464;BME280;5279;42.048;24.638;2023-02-20T08:22:46;97926.97;;;16.12;32.34
10464;BME280;5279;42.048;24.638;2023-02-20T08:25:16;97952.09;;;16.50;31.78
10464;BME280;5279;42.048;24.638;2023-02-20T08:27:43;97927.66;;;16.61;30.92
10464;BME280;5279;42.048;24.638;2023-02-20T08:30:13;97935.63;;;16.69;30.76
10464;BME280;5279;42.048;24.638;2023-02-20T08:32:40;97927.09;;;17.04;30.18
10464;BME280;5279;42.048;24.638;2023-02-20T08:35:09;97931.19;;;17.37;30.38
10464;BME280;5279;42.048;24.638;2023-02-20T08:37:36;97928.06;;;17.57;29.12
10464;BME280;5279;42.048;24.638;2023-02-20T08:40:03;97922.38;;;17.52;29.72
10464;BME280;5279;42.048;24.638;2023-02-20T08:42:42;97926.53;;;17.54;28.43
10464;BME280;5279;42.048;24.638;2023-02-20T08:45:09;97941.31;;;17.73;27.87
10464;BME280;5279;42.048;24.638;2023-02-20T08:47:36;97924.47;;;18.01;27.87
10464;BME280;5279;42.048;24.638;2023-02-20T08:50:04;97920.94;;;18.30;27.91
10464;BME280;5279;42.048;24.638;2023-02-20T08:52:31;97919.69;;;17.60;28.16
10464;BME280;5279;42.048;24.638;2023-02-20T08:54:58;97927.84;;;17.81;28.11
10464;BME280;5279;42.048;24.638;2023-02-20T08:57:24;97907.44;;;17.94;28.47
10464;BME280;5279;42.048;24.638;2023-02-20T08:59:53;97901.72;;;18.56;27.28
10464;BME280;5279;42.048;24.638;2023-02-20T09:02:21;97898.94;;;19.21;26.75
10464;BME280;5279;42.048;24.638;2023-02-20T09:04:50;97913.78;;;18.96;25.31
10464;BME280;5279;42.048;24.638;2023-02-20T09:07:17;97909.63;;;19.36;25.96
10464;BME280;5279;42.048;24.638;2023-02-20T09:09:44;97908.69;;;18.50;25.88
10464;BME280;5279;42.048;24.638;2023-02-20T09:12:11;97918.69;;;18.92;25.41
10464;BME280;5279;42.048;24.638;2023-02-20T09:14:39;97911.25;;;18.29;26.03
10464;BME280;5279;42.048;24.638;2023-02-20T09:17:08;97914.84;;;19.01;25.20
10464;BME280;5279;42.048;24.638;2023-02-20T09:19:35;97927.47;;;19.86;24.17
10464;BME280;5279;42.048;24.638;2023-02-20T09:22:05;97925.06;;;19.70;23.80
10464;BME280;5279;42.048;24.638;2023-02-20T09:24:32;97929.31;;;20.13;23.64
10464;BME280;5279;42.048;24.638;2023-02-20T09:27:00;97947.41;;;20.53;22.38
10464;BME280;5279;42.048;24.638;2023-02-20T09:29:27;97953.50;;;21.09;22.42
10464;BME280;5279;42.048;24.638;2023-02-20T09:31:54;97937.81;;;22.44;21.27
10464;BME280;5279;42.048;24.638;2023-02-20T09:34:22;97944.75;;;24.23;20.04
10464;BME280;5279;42.048;24.638;2023-02-20T09:36:52;97929.81;;;24.57;19.18
10464;BME280;5279;42.048;24.638;2023-02-20T09:39:20;97940.28;;;23.54;19.09
10464;BME280;5279;42.048;24.638;2023-02-20T09:42:04;97924.97;;;24.65;18.51
10464;BME280;5279;42.048;24.638;2023-02-20T09:44:38;97948.56;;;23.28;19.02
10464;BME280;5279;42.048;24.638;2023-02-20T09:47:26;97915.38;;;22.50;19.29
10464;BME280;5279;42.048;24.638;2023-02-20T09:50:00;97923.47;;;22.50;19.14
10464;BME280;5279;42.048;24.638;2023-02-20T09:52:28;97919.50;;;22.59;19.06
10464;BME280;5279;42.048;24.638;2023-02-20T09:55:01;97917.34;;;21.91;19.47
10464;BME280;5279;42.048;24.638;2023-02-20T09:57:29;97906.97;;;23.60;18.72
10464;BME280;5279;42.048;24.638;2023-02-20T10:00:02;97912.97;;;24.55;17.94
10464;BME280;5279;42.048;24.638;2023-02-20T10:02:43;97918.81;;;25.54;17.36
10464;BME280;5279;42.048;24.638;2023-02-20T10:05:19;97895.31;;;26.47;16.67
10464;BME280;5279;42.048;24.638;2023-02-20T10:07:48;97911.75;;;27.60;14.46
10464;BME280;5279;42.048;24.638;2023-02-20T10:10:20;97903.13;;;27.80;13.63
10464;BME280;5279;42.048;24.638;2023-02-20T10:12:55;97900.22;;;28.37;14.00
10464;BME280;5279;42.048;24.638;2023-02-20T10:15:31;97909.25;;;28.20;12.82
10464;BME280;5279;42.048;24.638;2023-02-20T10:18:16;97913.47;;;27.50;12.41
10464;BME280;5279;42.048;24.638;2023-02-20T10:20:55;97907.34;;;27.14;13.16
10464;BME280;5279;42.048;24.638;2023-02-20T10:23:34;97890.16;;;28.04;12.71
10464;BME280;5279;42.048;24.638;2023-02-20T10:26:06;97907.84;;;28.95;10.93
10464;BME280;5279;42.048;24.638;2023-02-20T10:28:35;97911.00;;;29.08;11.05
10464;BME280;5279;42.048;24.638;2023-02-20T10:31:10;97900.59;;;29.05;10.99
10464;BME280;5279;42.048;24.638;2023-02-20T10:33:46;97898.28;;;28.54;11.34
10464;BME280;5279;42.048;24.638;2023-02-20T10:36:19;97915.28;;;28.99;11.11
10464;BME280;5279;42.048;24.638;2023-02-20T10:38:53;97900.66;;;28.67;10.43
10464;BME280;5279;42.048;24.638;2023-02-20T10:41:25;97895.69;;;28.64;10.77
10464;BME280;5279;42.048;24.638;2023-02-20T10:43:54;97898.03;;;28.55;10.79
10464;BME280;5279;42.048;24.638;2023-02-20T10:46:39;97900.75;;;28.94;11.39
10464;BME280;5279;42.048;24.638;2023-02-20T10:49:14;97891.25;;;29.45;10.72
10464;BME280;5279;42.048;24.638;2023-02-20T10:51:46;97902.66;;;29.68;11.05
10464;BME280;5279;42.048;24.638;2023-02-20T10:54:17;97893.38;;;29.69;10.74
10464;BME280;5279;42.048;24.638;2023-02-20T10:56:55;97902.59;;;25.89;11.49
10464;BME280;5279;42.048;24.638;2023-02-20T10:59:29;97885.94;;;26.08;11.97
10464;BME280;5279;42.048;24.638;2023-02-20T11:02:01;97885.88;;;27.75;11.97
10464;BME280;5279;42.048;24.638;2023-02-20T11:04:33;97879.53;;;27.41;10.99
10464;BME280;5279;42.048;24.638;2023-02-20T11:07:06;97884.38;;;28.00;10.94
10464;BME280;5279;42.048;24.638;2023-02-20T11:09:34;97882.19;;;26.56;11.54
10464;BME280;5279;42.048;24.638;2023-02-20T11:12:01;97872.97;;;28.03;11.24
10464;BME280;5279;42.048;24.638;2023-02-20T11:14:32;97890.63;;;29.38;10.69
10464;BME280;5279;42.048;24.638;2023-02-20T11:17:02;97887.75;;;30.50;10.36
10464;BME280;5279;42.048;24.638;2023-02-20T11:19:39;97881.53;;;29.59;10.02
10464;BME280;5279;42.048;24.638;2023-02-20T11:22:08;97893.22;;;29.81;10.38
10464;BME280;5279;42.048;24.638;2023-02-20T11:24:36;97884.41;;;29.74;10.07
10464;BME280;5279;42.048;24.638;2023-02-20T11:27:08;97882.06;;;29.07;10.54
10464;BME280;5279;42.048;24.638;2023-02-20T11:29:40;97876.28;;;29.79;10.01
10464;BME280;5279;42.048;24.638;2023-02-20T11:32:27;97881.88;;;28.92;9.92
10464;BME280;5279;42.048;24.638;2023-02-20T11:35:20;97885.97;;;29.65;9.95
10464;BME280;5279;42.048;24.638;2023-02-20T11:37:49;97873.31;;;27.57;10.44
10464;BME280;5279;42.048;24.638;2023-02-20T11:40:20;97868.16;;;28.44;10.51
10464;BME280;5279;42.048;24.638;2023-02-20T11:42:50;97869.91;;;27.66;10.65
10464;BME280;5279;42.048;24.638;2023-02-20T11:45:23;97886.59;;;25.16;11.65
10464;BME280;5279;42.048;24.638;2023-02-20T11:48:07;97880.03;;;25.65;11.81
10464;BME280;5279;42.048;24.638;2023-02-20T11:50:38;97883.97;;;26.04;12.11
10464;BME280;5279;42.048;24.638;2023-02-20T11:53:17;97881.13;;;26.97;11.14
10464;BME280;5279;42.048;24.638;2023-02-20T11:55:47;97884.84;;;28.31;10.94
10464;BME280;5279;42.048;24.638;2023-02-20T11:58:21;97898.22;;;29.89;10.10
10464;BME280;5279;42.048;24.638;2023-02-20T12:00:51;97884.16;;;31.01;9.39
10464;BME280;5279;42.048;24.638;2023-02-20T12:03:21;97880.28;;;30.40;9.43
10464;BME280;5279;42.048;24.638;2023-02-20T12:05:49;97891.38;;;31.32;9.78
10464;BME280;5279;42.048;24.638;2023-02-20T12:08:48;97880.41;;;31.12;9.93
10464;BME280;5279;42.048;24.638;2023-02-20T12:11:19;97875.59;;;32.10;9.93
10464;BME280;5279;42.048;24.638;2023-02-20T12:13:48;97888.56;;;32.99;8.90
10464;BME280;5279;42.048;24.638;2023-02-20T12:16:31;97882.91;;;32.65;8.42
10464;BME280;5279;42.048;24.638;2023-02-20T12:19:11;97877.81;;;29.97;9.72
10464;BME280;5279;42.048;24.638;2023-02-20T12:21:53;97877.22;;;29.63;10.32
10464;BME280;5279;42.048;24.638;2023-02-20T12:24:35;97872.91;;;27.37;11.31
10464;BME280;5279;42.048;24.638;2023-02-20T12:27:29;97889.50;;;25.97;11.82
10464;BME280;5279;42.048;24.638;2023-02-20T12:30:05;97893.56;;;24.94;12.58
10464;BME280;5279;42.048;24.638;2023-02-20T12:32:49;97888.56;;;26.03;12.80
10464;BME280;5279;42.048;24.638;2023-02-20T12:35:25;97864.88;;;27.92;11.46
10464;BME280;5279;42.048;24.638;2023-02-20T12:38:03;97875.84;;;27.19;11.46
10464;BME280;5279;42.048;24.638;2023-02-20T12:40:47;97882.34;;;25.50;12.29
10464;BME280;5279;42.048;24.638;2023-02-20T12:43:24;97872.66;;;27.83;11.60
10464;BME280;5279;42.048;24.638;2023-02-20T12:46:05;97865.69;;;27.42;11.92
10464;BME280;5279;42.048;24.638;2023-02-20T12:48:42;97883.53;;;27.50;11.48
10464;BME280;5279;42.048;24.638;2023-02-20T12:51:22;97868.63;;;23.01;13.88
10464;BME280;5279;42.048;24.638;2023-02-20T12:54:03;97872.41;;;24.30;13.15
10464;BME280;5279;42.048;24.638;2023-02-20T12:56:45;97861.63;;;25.90;12.60
10464;BME280;5279;42.048;24.638;2023-02-20T12:59:30;97846.09;;;27.90;11.92
10464;BME280;5279;42.048;24.638;2023-02-20T13:02:14;97849.91;;;30.37;10.77
10464;BME280;5279;42.048;24.638;2023-02-20T13:04:44;97860.19;;;30.19;10.15
10464;BME280;5279;42.048;24.638;2023-02-20T13:07:16;97853.44;;;29.95;10.80
10464;BME280;5279;42.048;24.638;2023-02-20T13:09:55;97864.38;;;30.79;10.37
10464;BME280;5279;42.048;24.638;2023-02-20T13:12:25;97860.44;;;29.81;10.46
10464;BME280;5279;42.048;24.638;2023-02-20T13:14:59;97856.16;;;30.84;10.50
10464;BME280;5279;42.048;24.638;2023-02-20T13:17:38;97858.59;;;31.58;9.81
10464;BME280;5279;42.048;24.638;2023-02-20T13:20:14;97860.84;;;29.36;10.69
10464;BME280;5279;42.048;24.638;2023-02-20T13:22:42;97859.81;;;30.43;10.88
10464;BME280;5279;42.048;24.638;2023-02-20T13:25:38;97867.38;;;31.85;10.02
10464;BME280;5279;42.048;24.638;2023-02-20T13:28:25;97871.75;;;32.16;9.68